sensor_id;sensor_type;location;lat;lon;timestamp;temperature;humidity
68691;DHT22;55675;49.588;8.640;2023-05-07T00:01:32;17.90;73.10
68691;DHT22;55675;49.588;8.640;2023-05-07T00:03:58;17.80;73.20
68691;DHT22;55675;49.588;8.640;2023-05-07T00:06:23;17.80;73.80
68691;DHT22;55675;49.588;8.640;2023-05-07T00:08:49;17.80;73.90
68691;DHT22;55675;49.588;8.640;2023-05-07T00:11:14;17.70;74.00
68691;DHT22;55675;49.588;8.640;2023-05-07T00:13:40;17.70;74.50
68691;DHT22;55675;49.588;8.640;2023-05-07T00:16:05;17.70;74.50
68691;DHT22;55675;49.588;8.640;2023-05-07T00:18:31;17.70;74.50
68691;DHT22;55675;49.588;8.640;2023-05-07T00:20:56;17.60;74.80
68691;DHT22;55675;49.588;8.640;2023-05-07T00:23:22;17.60;75.10
68691;DHT22;55675;49.588;8.640;2023-05-07T00:25:47;17.50;76.30
68691;DHT22;55675;49.588;8.640;2023-05-07T00:28:13;17.50;76.10
68691;DHT22;55675;49.588;8.640;2023-05-07T00:30:38;17.40;76.70
68691;DHT22;55675;49.588;8.640;2023-05-07T00:33:04;17.30;77.00
68691;DHT22;55675;49.588;8.640;2023-05-07T00:35:29;17.20;78.10
68691;DHT22;55675;49.588;8.640;2023-05-07T00:37:55;17.10;78.00
68691;DHT22;55675;49.588;8.640;2023-05-07T00:40:20;17.10;78.50
68691;DHT22;55675;49.588;8.640;2023-05-07T00:42:46;17.00;79.30
68691;DHT22;55675;49.588;8.640;2023-05-07T00:45:15;17.00;79.10
68691;DHT22;55675;49.588;8.640;2023-05-07T00:47:41;17.10;79.00
68691;DHT22;55675;49.588;8.640;2023-05-07T00:50:07;17.10;79.00
68691;DHT22;55675;49.588;8.640;2023-05-07T00:52:33;17.10;79.10
68691;DHT22;55675;49.588;8.640;2023-05-07T00:54:59;17.10;78.80
68691;DHT22;55675;49.588;8.640;2023-05-07T00:57:27;17.10;78.90
68691;DHT22;55675;49.588;8.640;2023-05-07T00:59:53;17.10;78.90
68691;DHT22;55675;49.588;8.640;2023-05-07T01:02:18;17.10;78.70
68691;DHT22;55675;49.588;8.640;2023-05-07T01:04:44;17.10;78.70
68691;DHT22;55675;49.588;8.640;2023-05-07T01:07:09;17.20;78.60
68691;DHT22;55675;49.588;8.640;2023-05-07T01:09:35;17.20;78.40
68691;DHT22;55675;49.588;8.640;2023-05-07T01:12:01;17.20;78.20
68691;DHT22;55675;49.588;8.640;2023-05-07T01:14:26;17.20;78.30
68691;DHT22;55675;49.588;8.640;2023-05-07T01:16:52;17.20;77.80
68691;DHT22;55675;49.588;8.640;2023-05-07T01:19:18;17.20;77.70
68691;DHT22;55675;49.588;8.640;2023-05-07T01:21:48;17.20;77.60
68691;DHT22;55675;49.588;8.640;2023-05-07T01:24:14;17.20;77.70
68691;DHT22;55675;49.588;8.640;2023-05-07T01:26:39;17.20;78.00
68691;DHT22;55675;49.588;8.640;2023-05-07T01:29:05;17.20;78.00
68691;DHT22;55675;49.588;8.640;2023-05-07T01:31:31;17.10;78.70
68691;DHT22;55675;49.588;8.640;2023-05-07T01:33:57;17.10;78.90
68691;DHT22;55675;49.588;8.640;2023-05-07T01:36:24;17.10;80.70
68691;DHT22;55675;49.588;8.640;2023-05-07T01:38:51;17.10;80.10
68691;DHT22;55675;49.588;8.640;2023-05-07T01:41:18;17.10;79.60
68691;DHT22;55675;49.588;8.640;2023-05-07T01:43:43;17.10;79.40
68691;DHT22;55675;49.588;8.640;2023-05-07T01:46:09;17.00;79.40
68691;DHT22;55675;49.588;8.640;2023-05-07T01:48:35;17.00;79.60
68691;DHT22;55675;49.588;8.640;2023-05-07T01:51:01;17.00;79.40
68691;DHT22;55675;49.588;8.640;2023-05-07T01:53:27;17.00;79.90
68691;DHT22;55675;49.588;8.640;2023-05-07T01:55:53;17.00;79.40
68691;DHT22;55675;49.588;8.640;2023-05-07T01:58:18;16.90;79.10
68691;DHT22;55675;49.588;8.640;2023-05-07T02:00:44;17.10;79.30
68691;DHT22;55675;49.588;8.640;2023-05-07T02:03:09;17.00;79.10
68691;DHT22;55675;49.588;8.640;2023-05-07T02:05:35;17.00;78.90
68691;DHT22;55675;49.588;8.640;2023-05-07T02:08:00;17.00;78.90
68691;DHT22;55675;49.588;8.640;2023-05-07T02:10:25;17.00;78.70
68691;DHT22;55675;49.588;8.640;2023-05-07T02:12:51;17.00;78.60
68691;DHT22;55675;49.588;8.640;2023-05-07T02:15:16;17.00;78.50
68691;DHT22;55675;49.588;8.640;2023-05-07T02:17:57;17.00;80.00
68691;DHT22;55675;49.588;8.640;2023-05-07T02:20:24;16.90;79.60
68691;DHT22;55675;49.588;8.640;2023-05-07T02:22:49;16.70;81.20
68691;DHT22;55675;49.588;8.640;2023-05-07T02:25:15;16.60;80.90
68691;DHT22;55675;49.588;8.640;2023-05-07T02:27:40;16.50;81.60
68691;DHT22;55675;49.588;8.640;2023-05-07T02:30:06;16.40;83.00
68691;DHT22;55675;49.588;8.640;2023-05-07T02:32:31;16.20;83.70
68691;DHT22;55675;49.588;8.640;2023-05-07T02:34:57;16.10;83.90
68691;DHT22;55675;49.588;8.640;2023-05-07T02:37:22;15.90;86.80
68691;DHT22;55675;49.588;8.640;2023-05-07T02:39:48;15.80;86.90
68691;DHT22;55675;49.588;8.640;2023-05-07T02:42:13;15.60;90.00
68691;DHT22;55675;49.588;8.640;2023-05-07T02:44:38;15.60;89.30
68691;DHT22;55675;49.588;8.640;2023-05-07T02:47:04;15.50;89.80
68691;DHT22;55675;49.588;8.640;2023-05-07T02:49:30;15.50;89.90
68691;DHT22;55675;49.588;8.640;2023-05-07T02:51:55;15.50;89.60
68691;DHT22;55675;49.588;8.640;2023-05-07T02:54:21;15.50;89.20
68691;DHT22;55675;49.588;8.640;2023-05-07T02:56:46;15.60;89.00
68691;DHT22;55675;49.588;8.640;2023-05-07T02:59:11;15.60;88.80
68691;DHT22;55675;49.588;8.640;2023-05-07T03:01:37;15.60;88.80
68691;DHT22;55675;49.588;8.640;2023-05-07T03:04:02;15.60;88.90
68691;DHT22;55675;49.588;8.640;2023-05-07T03:06:28;15.60;88.90
68691;DHT22;55675;49.588;8.640;2023-05-07T03:08:53;15.60;89.60
68691;DHT22;55675;49.588;8.640;2023-05-07T03:11:19;15.60;89.60
68691;DHT22;55675;49.588;8.640;2023-05-07T03:13:44;15.60;89.70
68691;DHT22;55675;49.588;8.640;2023-05-07T03:16:10;15.60;90.00
68691;DHT22;55675;49.588;8.640;2023-05-07T03:18:35;15.50;90.10
68691;DHT22;55675;49.588;8.640;2023-05-07T03:21:01;15.50;91.00
68691;DHT22;55675;49.588;8.640;2023-05-07T03:23:26;15.50;90.80
68691;DHT22;55675;49.588;8.640;2023-05-07T03:25:52;15.50;90.60
68691;DHT22;55675;49.588;8.640;2023-05-07T03:28:17;15.50;91.70
68691;DHT22;55675;49.588;8.640;2023-05-07T03:30:43;15.50;92.40
68691;DHT22;55675;49.588;8.640;2023-05-07T03:33:08;15.50;92.00
68691;DHT22;55675;49.588;8.640;2023-05-07T03:35:33;15.40;91.70
68691;DHT22;55675;49.588;8.640;2023-05-07T03:37:59;15.40;91.90
68691;DHT22;55675;49.588;8.640;2023-05-07T03:40:24;15.40;92.00
68691;DHT22;55675;49.588;8.640;2023-05-07T03:42:50;15.30;91.80
68691;DHT22;55675;49.588;8.640;2023-05-07T03:45:15;15.30;91.80
68691;DHT22;55675;49.588;8.640;2023-05-07T03:47:41;15.30;91.70
68691;DHT22;55675;49.588;8.640;2023-05-07T03:50:06;15.30;92.00
68691;DHT22;55675;49.588;8.640;2023-05-07T03:52:32;15.30;91.90
68691;DHT22;55675;49.588;8.640;2023-05-07T03:54:57;15.30;91.90
68691;DHT22;55675;49.588;8.640;2023-05-07T03:57:23;15.20;91.80
68691;DHT22;55675;49.588;8.640;2023-05-07T03:59:48;15.20;91.90
68691;DHT22;55675;49.588;8.640;2023-05-07T04:02:14;15.10;91.80
68691;DHT22;55675;49.588;8.640;2023-05-07T04:04:39;15.10;91.80
68691;DHT22;55675;49.588;8.640;2023-05-07T04:07:04;15.10;92.00
68691;DHT22;55675;49.588;8.640;2023-05-07T04:09:30;15.20;92.10
68691;DHT22;55675;49.588;8.640;2023-05-07T04:11:56;15.20;92.00
68691;DHT22;55675;49.588;8.640;2023-05-07T04:14:21;15.30;92.00
68691;DHT22;55675;49.588;8.640;2023-05-07T04:16:47;15.30;92.00
68691;DHT22;55675;49.588;8.640;2023-05-07T04:19:12;15.30;92.20
68691;DHT22;55675;49.588;8.640;2023-05-07T04:21:37;15.20;91.90
68691;DHT22;55675;49.588;8.640;2023-05-07T04:24:03;15.10;92.50
68691;DHT22;55675;49.588;8.640;2023-05-07T04:26:29;15.00;92.40
68691;DHT22;55675;49.588;8.640;2023-05-07T04:28:54;14.90;92.50
68691;DHT22;55675;49.588;8.640;2023-05-07T04:31:20;15.00;92.60
68691;DHT22;55675;49.588;8.640;2023-05-07T04:33:45;15.00;92.70
68691;DHT22;55675;49.588;8.640;2023-05-07T04:36:11;14.90;92.90
68691;DHT22;55675;49.588;8.640;2023-05-07T04:38:36;14.90;93.40
68691;DHT22;55675;49.588;8.640;2023-05-07T04:41:03;14.90;93.90
68691;DHT22;55675;49.588;8.640;2023-05-07T04:43:28;14.90;93.80
68691;DHT22;55675;49.588;8.640;2023-05-07T04:45:54;15.00;93.90
68691;DHT22;55675;49.588;8.640;2023-05-07T04:48:20;15.10;93.90
68691;DHT22;55675;49.588;8.640;2023-05-07T04:50:51;15.10;94.10
68691;DHT22;55675;49.588;8.640;2023-05-07T04:53:17;15.20;93.90
68691;DHT22;55675;49.588;8.640;2023-05-07T04:55:43;15.30;93.90
68691;DHT22;55675;49.588;8.640;2023-05-07T04:58:09;15.30;93.80
68691;DHT22;55675;49.588;8.640;2023-05-07T05:00:34;15.50;93.70
68691;DHT22;55675;49.588;8.640;2023-05-07T05:03:00;15.60;93.60
68691;DHT22;55675;49.588;8.640;2023-05-07T05:05:25;15.70;93.30
68691;DHT22;55675;49.588;8.640;2023-05-07T05:07:51;15.90;93.20
68691;DHT22;55675;49.588;8.640;2023-05-07T05:10:17;16.00;93.00
68691;DHT22;55675;49.588;8.640;2023-05-07T05:12:42;16.20;92.60
68691;DHT22;55675;49.588;8.640;2023-05-07T05:15:08;16.40;92.50
68691;DHT22;55675;49.588;8.640;2023-05-07T05:17:34;16.50;92.40
68691;DHT22;55675;49.588;8.640;2023-05-07T05:20:00;16.70;92.30
68691;DHT22;55675;49.588;8.640;2023-05-07T05:22:26;16.90;92.00
68691;DHT22;55675;49.588;8.640;2023-05-07T05:24:52;17.10;91.70
68691;DHT22;55675;49.588;8.640;2023-05-07T05:27:17;17.20;91.60
68691;DHT22;55675;49.588;8.640;2023-05-07T05:29:43;17.30;91.40
68691;DHT22;55675;49.588;8.640;2023-05-07T05:32:08;17.50;91.20
68691;DHT22;55675;49.588;8.640;2023-05-07T05:34:34;17.60;91.10
68691;DHT22;55675;49.588;8.640;2023-05-07T05:36:59;17.80;90.20
68691;DHT22;55675;49.588;8.640;2023-05-07T05:39:25;17.90;90.00
68691;DHT22;55675;49.588;8.640;2023-05-07T05:41:50;18.10;89.70
68691;DHT22;55675;49.588;8.640;2023-05-07T05:44:15;18.20;89.30
68691;DHT22;55675;49.588;8.640;2023-05-07T05:46:41;18.30;89.40
68691;DHT22;55675;49.588;8.640;2023-05-07T05:49:06;18.40;88.80
68691;DHT22;55675;49.588;8.640;2023-05-07T05:51:32;18.50;86.10
68691;DHT22;55675;49.588;8.640;2023-05-07T05:53:57;18.60;87.00
68691;DHT22;55675;49.588;8.640;2023-05-07T05:56:23;18.70;80.70
68691;DHT22;55675;49.588;8.640;2023-05-07T05:58:48;18.70;79.00
68691;DHT22;55675;49.588;8.640;2023-05-07T06:01:14;18.90;76.60
68691;DHT22;55675;49.588;8.640;2023-05-07T06:03:39;19.00;76.60
68691;DHT22;55675;49.588;8.640;2023-05-07T06:06:05;19.10;76.60
68691;DHT22;55675;49.588;8.640;2023-05-07T06:08:30;19.20;75.40
68691;DHT22;55675;49.588;8.640;2023-05-07T06:10:56;19.30;75.60
68691;DHT22;55675;49.588;8.640;2023-05-07T06:13:22;19.50;75.50
68691;DHT22;55675;49.588;8.640;2023-05-07T06:15:48;19.60;75.90
68691;DHT22;55675;49.588;8.640;2023-05-07T06:18:13;19.80;75.80
68691;DHT22;55675;49.588;8.640;2023-05-07T06:20:39;20.00;75.50
68691;DHT22;55675;49.588;8.640;2023-05-07T06:23:05;20.10;74.70
68691;DHT22;55675;49.588;8.640;2023-05-07T06:25:30;20.30;74.50
68691;DHT22;55675;49.588;8.640;2023-05-07T06:27:56;20.40;74.00
68691;DHT22;55675;49.588;8.640;2023-05-07T06:30:21;20.50;74.90
68691;DHT22;55675;49.588;8.640;2023-05-07T06:32:47;20.50;75.10
68691;DHT22;55675;49.588;8.640;2023-05-07T06:35:12;20.40;75.10
68691;DHT22;55675;49.588;8.640;2023-05-07T06:37:38;20.40;75.40
68691;DHT22;55675;49.588;8.640;2023-05-07T06:40:05;20.50;75.60
68691;DHT22;55675;49.588;8.640;2023-05-07T06:42:32;20.60;75.90
68691;DHT22;55675;49.588;8.640;2023-05-07T06:44:57;20.60;75.80
68691;DHT22;55675;49.588;8.640;2023-05-07T06:47:23;20.60;76.40
68691;DHT22;55675;49.588;8.640;2023-05-07T06:49:48;20.70;76.50
68691;DHT22;55675;49.588;8.640;2023-05-07T06:52:14;20.70;76.70
68691;DHT22;55675;49.588;8.640;2023-05-07T06:54:39;20.80;77.20
68691;DHT22;55675;49.588;8.640;2023-05-07T06:57:05;20.80;77.40
68691;DHT22;55675;49.588;8.640;2023-05-07T06:59:30;20.80;77.70
68691;DHT22;55675;49.588;8.640;2023-05-07T07:01:56;20.90;78.80
68691;DHT22;55675;49.588;8.640;2023-05-07T07:04:21;20.90;78.40
68691;DHT22;55675;49.588;8.640;2023-05-07T07:06:48;21.00;78.80
68691;DHT22;55675;49.588;8.640;2023-05-07T07:09:13;21.00;78.70
68691;DHT22;55675;49.588;8.640;2023-05-07T07:11:39;21.10;78.30
68691;DHT22;55675;49.588;8.640;2023-05-07T07:14:04;21.20;77.20
68691;DHT22;55675;49.588;8.640;2023-05-07T07:16:30;21.20;76.80
68691;DHT22;55675;49.588;8.640;2023-05-07T07:18:55;21.30;76.60
68691;DHT22;55675;49.588;8.640;2023-05-07T07:21:21;21.40;75.60
68691;DHT22;55675;49.588;8.640;2023-05-07T07:23:46;21.40;76.00
68691;DHT22;55675;49.588;8.640;2023-05-07T07:26:11;21.40;76.70
68691;DHT22;55675;49.588;8.640;2023-05-07T07:28:43;21.50;77.00
68691;DHT22;55675;49.588;8.640;2023-05-07T07:31:10;21.70;76.40
68691;DHT22;55675;49.588;8.640;2023-05-07T07:33:35;21.80;76.20
68691;DHT22;55675;49.588;8.640;2023-05-07T07:36:01;21.80;75.80
68691;DHT22;55675;49.588;8.640;2023-05-07T07:38:26;22.00;75.80
68691;DHT22;55675;49.588;8.640;2023-05-07T07:40:51;22.10;75.80
68691;DHT22;55675;49.588;8.640;2023-05-07T07:43:17;22.20;75.40
68691;DHT22;55675;49.588;8.640;2023-05-07T07:45:42;22.20;74.10
68691;DHT22;55675;49.588;8.640;2023-05-07T07:48:08;22.30;73.90
68691;DHT22;55675;49.588;8.640;2023-05-07T07:50:33;22.20;73.40
68691;DHT22;55675;49.588;8.640;2023-05-07T07:52:59;22.30;73.30
68691;DHT22;55675;49.588;8.640;2023-05-07T07:55:24;22.30;73.60
68691;DHT22;55675;49.588;8.640;2023-05-07T07:57:49;22.30;72.80
68691;DHT22;55675;49.588;8.640;2023-05-07T08:00:15;22.20;73.60
68691;DHT22;55675;49.588;8.640;2023-05-07T08:02:41;22.10;74.10
68691;DHT22;55675;49.588;8.640;2023-05-07T08:05:07;22.00;74.40
68691;DHT22;55675;49.588;8.640;2023-05-07T08:07:32;22.00;74.20
68691;DHT22;55675;49.588;8.640;2023-05-07T08:09:58;21.90;74.60
68691;DHT22;55675;49.588;8.640;2023-05-07T08:12:23;22.00;74.20
68691;DHT22;55675;49.588;8.640;2023-05-07T08:14:49;22.10;73.80
68691;DHT22;55675;49.588;8.640;2023-05-07T08:17:14;22.20;73.30
68691;DHT22;55675;49.588;8.640;2023-05-07T08:19:41;22.30;72.70
68691;DHT22;55675;49.588;8.640;2023-05-07T08:22:06;22.40;72.80
68691;DHT22;55675;49.588;8.640;2023-05-07T08:24:32;22.50;72.60
68691;DHT22;55675;49.588;8.640;2023-05-07T08:26:57;22.50;72.30
68691;DHT22;55675;49.588;8.640;2023-05-07T08:29:23;22.60;72.00
68691;DHT22;55675;49.588;8.640;2023-05-07T08:31:48;22.70;71.50
68691;DHT22;55675;49.588;8.640;2023-05-07T08:34:14;22.70;71.20
68691;DHT22;55675;49.588;8.640;2023-05-07T08:36:39;22.70;70.70
68691;DHT22;55675;49.588;8.640;2023-05-07T08:39:06;22.70;69.90
68691;DHT22;55675;49.588;8.640;2023-05-07T08:41:32;22.90;70.00
68691;DHT22;55675;49.588;8.640;2023-05-07T08:43:58;23.10;70.00
68691;DHT22;55675;49.588;8.640;2023-05-07T08:46:25;23.10;69.10
68691;DHT22;55675;49.588;8.640;2023-05-07T08:48:51;23.20;69.40
68691;DHT22;55675;49.588;8.640;2023-05-07T08:51:17;23.30;69.60
68691;DHT22;55675;49.588;8.640;2023-05-07T08:53:43;23.50;69.50
68691;DHT22;55675;49.588;8.640;2023-05-07T08:56:08;23.70;67.70
68691;DHT22;55675;49.588;8.640;2023-05-07T08:58:34;23.80;67.10
68691;DHT22;55675;49.588;8.640;2023-05-07T09:01:03;23.90;67.00
68691;DHT22;55675;49.588;8.640;2023-05-07T09:03:31;24.00;65.30
68691;DHT22;55675;49.588;8.640;2023-05-07T09:05:56;24.00;63.10
68691;DHT22;55675;49.588;8.640;2023-05-07T09:08:24;24.10;64.00
68691;DHT22;55675;49.588;8.640;2023-05-07T09:10:49;24.30;63.20
68691;DHT22;55675;49.588;8.640;2023-05-07T09:13:15;24.40;63.40
68691;DHT22;55675;49.588;8.640;2023-05-07T09:15:40;24.40;62.90
68691;DHT22;55675;49.588;8.640;2023-05-07T09:18:06;24.50;63.40
68691;DHT22;55675;49.588;8.640;2023-05-07T09:20:31;24.70;63.30
68691;DHT22;55675;49.588;8.640;2023-05-07T09:22:57;24.90;62.50
68691;DHT22;55675;49.588;8.640;2023-05-07T09:25:29;25.10;61.90
68691;DHT22;55675;49.588;8.640;2023-05-07T09:27:54;25.20;61.00
68691;DHT22;55675;49.588;8.640;2023-05-07T09:30:20;25.40;59.40
68691;DHT22;55675;49.588;8.640;2023-05-07T09:32:46;25.50;59.00
68691;DHT22;55675;49.588;8.640;2023-05-07T09:35:15;25.50;58.20
68691;DHT22;55675;49.588;8.640;2023-05-07T09:37:42;25.60;59.10
68691;DHT22;55675;49.588;8.640;2023-05-07T09:40:07;25.90;57.50
68691;DHT22;55675;49.588;8.640;2023-05-07T09:42:35;26.10;57.40
68691;DHT22;55675;49.588;8.640;2023-05-07T09:45:00;26.40;57.40
68691;DHT22;55675;49.588;8.640;2023-05-07T09:47:26;26.60;56.40
68691;DHT22;55675;49.588;8.640;2023-05-07T09:49:55;26.80;55.70
68691;DHT22;55675;49.588;8.640;2023-05-07T09:52:21;26.80;54.70
68691;DHT22;55675;49.588;8.640;2023-05-07T09:54:47;26.90;55.30
68691;DHT22;55675;49.588;8.640;2023-05-07T09:57:14;27.00;54.80
68691;DHT22;55675;49.588;8.640;2023-05-07T09:59:41;27.10;54.70
68691;DHT22;55675;49.588;8.640;2023-05-07T10:02:07;27.10;53.40
68691;DHT22;55675;49.588;8.640;2023-05-07T10:04:35;27.10;52.40
68691;DHT22;55675;49.588;8.640;2023-05-07T10:07:00;27.20;51.30
68691;DHT22;55675;49.588;8.640;2023-05-07T10:09:26;27.30;51.90
68691;DHT22;55675;49.588;8.640;2023-05-07T10:11:52;27.40;50.90
68691;DHT22;55675;49.588;8.640;2023-05-07T10:14:19;27.60;51.30
68691;DHT22;55675;49.588;8.640;2023-05-07T10:16:45;27.80;50.50
68691;DHT22;55675;49.588;8.640;2023-05-07T10:19:12;27.90;51.10
68691;DHT22;55675;49.588;8.640;2023-05-07T10:21:48;28.00;49.80
68691;DHT22;55675;49.588;8.640;2023-05-07T10:24:19;28.30;49.80
68691;DHT22;55675;49.588;8.640;2023-05-07T10:26:47;28.50;49.00
68691;DHT22;55675;49.588;8.640;2023-05-07T10:30:00;28.60;48.10
68691;DHT22;55675;49.588;8.640;2023-05-07T10:32:22;28.50;47.00
68691;DHT22;55675;49.588;8.640;2023-05-07T10:34:50;28.40;46.40
68691;DHT22;55675;49.588;8.640;2023-05-07T10:37:18;28.30;47.20
68691;DHT22;55675;49.588;8.640;2023-05-07T10:39:44;28.30;48.50
68691;DHT22;55675;49.588;8.640;2023-05-07T10:42:09;28.40;48.60
68691;DHT22;55675;49.588;8.640;2023-05-07T10:44:35;28.40;47.20
68691;DHT22;55675;49.588;8.640;2023-05-07T10:49:52;28.30;45.80
68691;DHT22;55675;49.588;8.640;2023-05-07T10:52:23;28.20;45.10
68691;DHT22;55675;49.588;8.640;2023-05-07T10:55:18;28.10;46.20
68691;DHT22;55675;49.588;8.640;2023-05-07T10:57:35;28.20;45.30
68691;DHT22;55675;49.588;8.640;2023-05-07T11:00:03;28.10;43.90
68691;DHT22;55675;49.588;8.640;2023-05-07T11:03:04;28.10;45.50
68691;DHT22;55675;49.588;8.640;2023-05-07T11:05:24;28.20;45.70
68691;DHT22;55675;49.588;8.640;2023-05-07T11:07:56;28.30;45.10
68691;DHT22;55675;49.588;8.640;2023-05-07T11:10:22;28.40;46.20
68691;DHT22;55675;49.588;8.640;2023-05-07T11:12:49;28.50;45.30
68691;DHT22;55675;49.588;8.640;2023-05-07T11:15:15;28.60;44.30
68691;DHT22;55675;49.588;8.640;2023-05-07T11:17:58;28.70;44.60
68691;DHT22;55675;49.588;8.640;2023-05-07T11:23:14;29.10;44.80
68691;DHT22;55675;49.588;8.640;2023-05-07T11:25:58;29.20;43.50
68691;DHT22;55675;49.588;8.640;2023-05-07T11:28:24;29.30;43.00
68691;DHT22;55675;49.588;8.640;2023-05-07T11:30:49;29.40;41.70
68691;DHT22;55675;49.588;8.640;2023-05-07T11:33:17;29.50;42.80
68691;DHT22;55675;49.588;8.640;2023-05-07T11:35:42;29.70;42.90
68691;DHT22;55675;49.588;8.640;2023-05-07T11:38:08;29.70;42.60
68691;DHT22;55675;49.588;8.640;2023-05-07T11:40:33;29.80;42.10
68691;DHT22;55675;49.588;8.640;2023-05-07T11:42:59;29.90;42.00
68691;DHT22;55675;49.588;8.640;2023-05-07T11:45:35;29.80;42.20
68691;DHT22;55675;49.588;8.640;2023-05-07T11:48:01;29.90;41.80
68691;DHT22;55675;49.588;8.640;2023-05-07T11:50:27;29.90;41.60
68691;DHT22;55675;49.588;8.640;2023-05-07T11:52:52;30.00;41.90
68691;DHT22;55675;49.588;8.640;2023-05-07T11:55:18;30.00;42.20
68691;DHT22;55675;49.588;8.640;2023-05-07T11:57:44;30.10;41.70
68691;DHT22;55675;49.588;8.640;2023-05-07T12:00:09;30.00;41.00
68691;DHT22;55675;49.588;8.640;2023-05-07T12:02:35;30.10;40.00
68691;DHT22;55675;49.588;8.640;2023-05-07T12:05:01;30.00;41.20
68691;DHT22;55675;49.588;8.640;2023-05-07T12:07:27;30.00;40.30
68691;DHT22;55675;49.588;8.640;2023-05-07T12:09:53;29.80;39.60
68691;DHT22;55675;49.588;8.640;2023-05-07T12:12:18;29.60;40.90
68691;DHT22;55675;49.588;8.640;2023-05-07T12:14:44;29.50;41.10
68691;DHT22;55675;49.588;8.640;2023-05-07T12:17:10;29.50;40.80
68691;DHT22;55675;49.588;8.640;2023-05-07T12:19:36;29.50;40.70
68691;DHT22;55675;49.588;8.640;2023-05-07T12:22:03;29.50;41.40
68691;DHT22;55675;49.588;8.640;2023-05-07T12:24:29;29.80;41.20
68691;DHT22;55675;49.588;8.640;2023-05-07T12:26:54;30.10;41.30
68691;DHT22;55675;49.588;8.640;2023-05-07T12:29:23;30.40;39.30
68691;DHT22;55675;49.588;8.640;2023-05-07T12:31:49;30.50;39.70
68691;DHT22;55675;49.588;8.640;2023-05-07T12:34:15;30.70;38.80
68691;DHT22;55675;49.588;8.640;2023-05-07T12:36:40;31.00;38.50
68691;DHT22;55675;49.588;8.640;2023-05-07T12:39:06;31.30;37.80
68691;DHT22;55675;49.588;8.640;2023-05-07T12:41:36;31.50;38.00
68691;DHT22;55675;49.588;8.640;2023-05-07T12:44:01;31.50;36.90
68691;DHT22;55675;49.588;8.640;2023-05-07T12:46:29;31.60;34.90
68691;DHT22;55675;49.588;8.640;2023-05-07T12:48:54;31.50;35.40
68691;DHT22;55675;49.588;8.640;2023-05-07T12:51:20;31.50;36.10
68691;DHT22;55675;49.588;8.640;2023-05-07T12:53:45;31.80;37.00
68691;DHT22;55675;49.588;8.640;2023-05-07T12:56:11;32.00;35.80
68691;DHT22;55675;49.588;8.640;2023-05-07T12:58:36;32.10;34.70
68691;DHT22;55675;49.588;8.640;2023-05-07T13:01:05;31.90;34.30
68691;DHT22;55675;49.588;8.640;2023-05-07T13:03:35;31.90;34.90
68691;DHT22;55675;49.588;8.640;2023-05-07T13:06:06;31.80;34.70
68691;DHT22;55675;49.588;8.640;2023-05-07T13:08:33;31.70;34.50
68691;DHT22;55675;49.588;8.640;2023-05-07T13:11:00;31.50;34.60
68691;DHT22;55675;49.588;8.640;2023-05-07T13:13:29;31.30;34.80
68691;DHT22;55675;49.588;8.640;2023-05-07T13:15:54;31.20;35.30
68691;DHT22;55675;49.588;8.640;2023-05-07T13:18:20;31.00;35.70
68691;DHT22;55675;49.588;8.640;2023-05-07T13:20:45;30.90;35.30
68691;DHT22;55675;49.588;8.640;2023-05-07T13:23:11;30.60;35.50
68691;DHT22;55675;49.588;8.640;2023-05-07T13:25:36;30.30;35.40
68691;DHT22;55675;49.588;8.640;2023-05-07T13:28:02;30.20;36.50
68691;DHT22;55675;49.588;8.640;2023-05-07T13:30:28;30.00;36.90
68691;DHT22;55675;49.588;8.640;2023-05-07T13:32:54;29.90;37.20
68691;DHT22;55675;49.588;8.640;2023-05-07T13:35:20;29.70;37.00
68691;DHT22;55675;49.588;8.640;2023-05-07T13:37:46;29.50;37.30
68691;DHT22;55675;49.588;8.640;2023-05-07T13:40:13;29.40;37.60
68691;DHT22;55675;49.588;8.640;2023-05-07T13:42:38;29.20;38.00
68691;DHT22;55675;49.588;8.640;2023-05-07T13:45:04;29.00;38.30
68691;DHT22;55675;49.588;8.640;2023-05-07T13:47:30;28.70;39.10
68691;DHT22;55675;49.588;8.640;2023-05-07T13:49:56;28.50;39.90
68691;DHT22;55675;49.588;8.640;2023-05-07T13:52:21;28.20;40.60
68691;DHT22;55675;49.588;8.640;2023-05-07T13:54:46;28.00;40.90
68691;DHT22;55675;49.588;8.640;2023-05-07T13:57:12;27.80;41.20
68691;DHT22;55675;49.588;8.640;2023-05-07T13:59:37;27.60;41.40
68691;DHT22;55675;49.588;8.640;2023-05-07T14:02:03;27.40;42.20
68691;DHT22;55675;49.588;8.640;2023-05-07T14:04:28;27.20;42.60
68691;DHT22;55675;49.588;8.640;2023-05-07T14:06:54;27.00;43.00
68691;DHT22;55675;49.588;8.640;2023-05-07T14:09:19;26.90;43.40
68691;DHT22;55675;49.588;8.640;2023-05-07T14:11:45;26.70;43.50
68691;DHT22;55675;49.588;8.640;2023-05-07T14:14:12;26.50;44.30
68691;DHT22;55675;49.588;8.640;2023-05-07T14:16:38;26.40;44.50
68691;DHT22;55675;49.588;8.640;2023-05-07T14:19:03;26.20;45.30
68691;DHT22;55675;49.588;8.640;2023-05-07T14:21:29;26.10;45.30
68691;DHT22;55675;49.588;8.640;2023-05-07T14:23:56;26.00;45.80
68691;DHT22;55675;49.588;8.640;2023-05-07T14:26:21;25.80;46.40
68691;DHT22;55675;49.588;8.640;2023-05-07T14:28:48;25.70;46.50
68691;DHT22;55675;49.588;8.640;2023-05-07T14:31:14;25.60;47.00
68691;DHT22;55675;49.588;8.640;2023-05-07T14:33:39;25.50;47.20
68691;DHT22;55675;49.588;8.640;2023-05-07T14:36:05;25.50;47.20
68691;DHT22;55675;49.588;8.640;2023-05-07T14:38:30;25.40;48.60
68691;DHT22;55675;49.588;8.640;2023-05-07T14:40:58;25.20;51.80
68691;DHT22;55675;49.588;8.640;2023-05-07T14:43:23;24.80;57.60
68691;DHT22;55675;49.588;8.640;2023-05-07T14:45:49;24.00;62.50
68691;DHT22;55675;49.588;8.640;2023-05-07T14:48:15;22.80;69.90
68691;DHT22;55675;49.588;8.640;2023-05-07T14:50:41;21.60;73.80
68691;DHT22;55675;49.588;8.640;2023-05-07T14:53:06;20.70;79.60
68691;DHT22;55675;49.588;8.640;2023-05-07T14:55:31;20.30;82.90
68691;DHT22;55675;49.588;8.640;2023-05-07T14:57:57;20.10;86.70
68691;DHT22;55675;49.588;8.640;2023-05-07T15:00:22;20.00;86.70
68691;DHT22;55675;49.588;8.640;2023-05-07T15:02:52;19.90;90.10
68691;DHT22;55675;49.588;8.640;2023-05-07T15:05:17;19.70;90.80
68691;DHT22;55675;49.588;8.640;2023-05-07T15:07:44;19.50;91.80
68691;DHT22;55675;49.588;8.640;2023-05-07T15:10:10;19.10;93.30
68691;DHT22;55675;49.588;8.640;2023-05-07T15:12:35;18.70;94.50
68691;DHT22;55675;49.588;8.640;2023-05-07T15:15:01;18.40;96.20
68691;DHT22;55675;49.588;8.640;2023-05-07T15:17:26;18.20;97.00
68691;DHT22;55675;49.588;8.640;2023-05-07T15:19:52;18.00;98.50
68691;DHT22;55675;49.588;8.640;2023-05-07T15:22:17;17.80;99.10
68691;DHT22;55675;49.588;8.640;2023-05-07T15:24:43;17.70;99.70
68691;DHT22;55675;49.588;8.640;2023-05-07T15:27:09;17.60;99.90
68691;DHT22;55675;49.588;8.640;2023-05-07T15:29:35;17.60;99.90